Time;durP1;ratioP1;P1;durP2;ratioP2;P2;SDS_P1;SDS_P2;PMS_P1;PMS_P2;Temp;Humidity;BMP_temperature;BMP_pressure;BME280_temperature;BME280_humidity;BME280_pressure;Samples;Min_cycle;Max_cycle;Signal;HPM_P1;HPM_P2
2022/04/05 00:01:30;;;;;;;27.15;25.45;;;6.80;67.60;;;;;;5091663;28;20660;-73
2022/04/05 00:03:57;;;;;;;27.38;25.73;;;6.80;67.70;;;;;;5091463;28;20214;-73
2022/04/05 00:06:25;;;;;;;27.33;25.55;;;6.80;67.80;;;;;;5091867;28;20195;-73
2022/04/05 00:08:52;;;;;;;25.52;24.08;;;6.80;67.60;;;;;;5091771;28;20284;-72
2022/04/05 00:11:19;;;;;;;27.88;26.08;;;6.80;67.80;;;;;;5091333;28;20196;-73
2022/04/05 00:13:46;;;;;;;27.15;25.45;;;6.80;67.50;;;;;;5091702;28;20236;-73
2022/04/05 00:16:13;;;;;;;26.35;24.80;;;6.80;67.90;;;;;;5091781;28;20288;-73
2022/04/05 00:18:39;;;;;;;27.13;25.42;;;6.80;67.80;;;;;;5091933;28;20591;-72
2022/04/05 00:21:06;;;;;;;27.48;25.77;;;6.80;67.70;;;;;;5093406;28;20207;-72
2022/04/05 00:23:35;;;;;;;26.63;24.95;;;6.70;68.40;;;;;;5095561;28;20241;-73
2022/04/05 00:26:02;;;;;;;27.10;25.45;;;6.80;68.00;;;;;;5095506;28;20785;-73
2022/04/05 00:28:30;;;;;;;27.70;25.90;;;6.80;67.80;;;;;;5095389;28;20211;-73
2022/04/05 00:30:57;;;;;;;27.05;25.25;;;6.80;67.90;;;;;;5094679;28;20194;-72
2022/04/05 00:33:23;;;;;;;26.80;25.10;;;6.80;67.80;;;;;;5095195;28;20767;-72
2022/04/05 00:35:51;;;;;;;26.55;24.90;;;6.70;68.10;;;;;;5095356;28;20289;-73
2022/04/05 00:38:18;;;;;;;26.60;24.88;;;6.70;68.40;;;;;;5095267;28;20197;-73
2022/04/05 00:40:46;;;;;;;27.30;25.50;;;6.80;67.80;;;;;;5094783;28;20570;-73
2022/04/05 00:43:13;;;;;;;27.60;25.85;;;6.80;67.90;;;;;;5095597;28;20207;-73
2022/04/05 00:45:40;;;;;;;27.25;25.65;;;6.80;67.90;;;;;;5095078;28;20205;-73
2022/04/05 00:48:07;;;;;;;27.65;25.88;;;6.80;68.00;;;;;;5095157;28;20206;-73
2022/04/05 00:50:39;;;;;;;26.70;25.05;;;6.80;68.10;;;;;;5094460;28;20196;-73
2022/04/05 00:53:07;;;;;;;27.80;26.20;;;6.90;67.80;;;;;;5094737;28;20237;-73
2022/04/05 00:55:35;;;;;;;26.55;25.05;;;6.80;68.00;;;;;;5094877;28;20260;-73
2022/04/05 00:58:04;;;;;;;26.88;25.15;;;6.80;68.10;;;;;;5094795;28;20194;-73
2022/04/05 01:00:32;;;;;;;27.27;25.42;;;6.90;68.10;;;;;;5094167;28;20238;-73
2022/04/05 01:03:01;;;;;;;27.30;25.50;;;6.90;68.00;;;;;;5094842;28;20217;-73
2022/04/05 01:05:29;;;;;;;26.35;24.67;;;6.90;68.00;;;;;;5094324;28;20210;-73
2022/04/05 01:07:59;;;;;;;26.35;24.75;;;6.90;68.00;;;;;;5094647;28;20206;-73
2022/04/05 01:10:29;;;;;;;27.17;25.42;;;6.90;67.80;;;;;;5093926;28;20664;-73
2022/04/05 01:12:56;;;;;;;26.52;24.92;;;7.00;67.50;;;;;;5094323;28;20226;-73
2022/04/05 01:15:25;;;;;;;26.67;25.08;;;7.00;67.30;;;;;;5094716;28;20202;-73
2022/04/05 01:17:56;;;;;;;26.27;24.45;;;6.90;67.50;;;;;;5094524;28;20291;-73
2022/04/05 01:20:24;;;;;;;26.42;24.60;;;6.90;67.30;;;;;;5093937;28;20294;-73
2022/04/05 01:22:53;;;;;;;27.67;25.90;;;6.90;67.40;;;;;;5094326;28;20218;-73
2022/04/05 01:25:22;;;;;;;26.48;24.67;;;7.00;67.30;;;;;;5094326;28;20198;-72
2022/04/05 01:27:50;;;;;;;26.73;24.92;;;7.00;67.60;;;;;;5094263;28;20659;-73
2022/04/05 01:30:17;;;;;;;25.50;23.90;;;7.10;67.60;;;;;;5093798;28;20195;-72
2022/04/05 01:32:45;;;;;;;26.52;24.88;;;7.00;68.10;;;;;;5093718;28;20246;-73
2022/04/05 01:35:14;;;;;;;27.63;25.80;;;7.00;68.40;;;;;;5094115;28;20195;-73
2022/04/05 01:37:41;;;;;;;27.83;26.02;;;7.00;68.90;;;;;;5094108;28;20564;-73
2022/04/05 01:40:09;;;;;;;27.50;25.80;;;7.10;69.10;;;;;;5093547;28;20200;-73
2022/04/05 01:42:37;;;;;;;27.48;25.70;;;7.00;69.20;;;;;;5094039;28;20212;-73
2022/04/05 01:45:05;;;;;;;27.08;25.00;;;7.10;69.10;;;;;;5093865;28;20738;-73
2022/04/05 01:47:32;;;;;;;26.70;25.00;;;7.00;69.10;;;;;;5094029;28;20632;-72
2022/04/05 01:49:59;;;;;;;27.20;25.33;;;7.00;69.20;;;;;;5093114;28;20622;-73
2022/04/05 01:52:26;;;;;;;27.40;25.60;;;7.00;69.30;;;;;;5093778;28;20218;-73
2022/04/05 01:54:53;;;;;;;26.92;25.30;;;7.00;69.20;;;;;;5093751;28;20206;-73
2022/04/05 01:57:20;;;;;;;27.80;25.88;;;6.90;69.30;;;;;;5093603;28;20230;-73
2022/04/05 01:59:48;;;;;;;26.73;25.05;;;7.00;69.10;;;;;;5093289;28;20286;-73
2022/04/05 02:02:15;;;;;;;26.88;25.08;;;6.90;69.90;;;;;;5093606;28;20218;-73
2022/04/05 02:04:42;;;;;;;27.23;25.48;;;6.90;69.90;;;;;;5093233;28;20199;-73
2022/04/05 02:07:11;;;;;;;27.08;25.35;;;6.90;70.20;;;;;;5093363;28;20202;-73
2022/04/05 02:09:38;;;;;;;26.70;25.00;;;6.90;70.10;;;;;;5092709;28;20294;-73
2022/04/05 02:12:07;;;;;;;27.95;25.85;;;6.90;70.70;;;;;;5093664;28;20198;-73
2022/04/05 02:14:34;;;;;;;27.50;25.67;;;7.00;71.20;;;;;;5093661;28;20575;-72
2022/04/05 02:17:02;;;;;;;27.98;25.85;;;6.90;71.10;;;;;;5093440;28;20296;-73
2022/04/05 02:19:29;;;;;;;27.90;26.10;;;6.90;71.20;;;;;;5092789;28;20206;-72
2022/04/05 02:21:57;;;;;;;27.65;25.95;;;6.90;71.00;;;;;;5093080;28;20220;-73
2022/04/05 02:24:23;;;;;;;26.80;25.10;;;6.80;71.10;;;;;;5093304;28;20813;-73
2022/04/05 02:26:51;;;;;;;28.20;26.40;;;6.80;71.00;;;;;;5093137;28;20202;-73
2022/04/05 02:29:17;;;;;;;25.42;23.92;;;6.80;71.00;;;;;;5092633;28;20289;-73
2022/04/05 02:31:44;;;;;;;26.48;24.88;;;6.70;71.20;;;;;;5092970;28;20241;-73
2022/04/05 02:34:13;;;;;;;27.55;25.73;;;6.80;71.60;;;;;;5092776;28;20230;-73
2022/04/05 02:36:40;;;;;;;29.15;27.35;;;6.70;71.50;;;;;;5093044;28;20288;-73
2022/04/05 02:39:07;;;;;;;27.52;25.73;;;6.80;72.40;;;;;;5092909;28;20198;-72
2022/04/05 02:41:34;;;;;;;27.45;25.50;;;6.80;72.50;;;;;;5092738;28;20206;-72
2022/04/05 02:44:01;;;;;;;26.80;25.08;;;6.80;72.70;;;;;;5092131;28;20271;-72
2022/04/05 02:46:28;;;;;;;26.52;24.92;;;6.80;72.70;;;;;;5092594;28;20746;-72
2022/04/05 02:48:55;;;;;;;27.10;25.40;;;6.80;72.60;;;;;;5092736;28;20284;-72
2022/04/05 02:51:24;;;;;;;27.65;25.85;;;6.70;72.80;;;;;;5092211;28;20204;-71
2022/04/05 02:53:51;;;;;;;28.85;26.85;;;6.60;72.70;;;;;;5092629;28;20261;-72
2022/04/05 02:56:18;;;;;;;29.15;27.25;;;6.60;73.40;;;;;;5092564;28;20659;-72
2022/04/05 02:58:47;;;;;;;28.20;26.25;;;6.70;72.80;;;;;;5092410;28;20198;-72
2022/04/05 03:01:15;;;;;;;28.70;26.90;;;6.70;72.40;;;;;;5092046;28;20202;-72
2022/04/05 03:03:42;;;;;;;27.45;25.77;;;6.70;72.50;;;;;;5092482;28;20220;-72
2022/04/05 03:06:10;;;;;;;27.48;25.70;;;6.70;72.20;;;;;;5092195;28;20310;-72
2022/04/05 03:08:38;;;;;;;28.05;26.25;;;6.80;72.10;;;;;;5092261;28;20196;-72
2022/04/05 03:11:05;;;;;;;27.52;25.73;;;6.80;72.70;;;;;;5092091;28;20198;-72
2022/04/05 03:13:32;;;;;;;28.80;26.83;;;6.80;73.00;;;;;;5092146;28;20656;-72
2022/04/05 03:15:59;;;;;;;29.75;27.95;;;6.70;73.30;;;;;;5092243;28;20198;-72
2022/04/05 03:18:26;;;;;;;28.67;26.77;;;6.70;72.10;;;;;;5092269;28;20194;-72
2022/04/05 03:20:53;;;;;;;27.90;26.02;;;6.70;72.20;;;;;;5091977;28;20544;-72
2022/04/05 03:23:21;;;;;;;28.77;26.98;;;6.70;72.30;;;;;;5092220;28;20221;-72
2022/04/05 03:25:50;;;;;;;27.20;25.40;;;6.80;72.40;;;;;;5092150;28;20630;-72
2022/04/05 03:28:18;;;;;;;28.10;26.35;;;6.80;72.60;;;;;;5091982;28;20202;-72
2022/04/05 03:30:47;;;;;;;27.15;25.45;;;6.90;72.20;;;;;;5091588;28;20559;-72
2022/04/05 03:33:14;;;;;;;28.15;26.08;;;6.80;72.10;;;;;;5092116;28;20222;-72
2022/04/05 03:35:41;;;;;;;28.15;26.13;;;6.70;71.90;;;;;;5092039;28;20207;-72
2022/04/05 03:38:08;;;;;;;30.00;28.00;;;6.70;71.70;;;;;;5092411;28;20209;-72
2022/04/05 03:40:35;;;;;;;29.88;27.88;;;6.80;71.30;;;;;;5091365;28;20198;-72
2022/04/05 03:43:04;;;;;;;28.80;27.00;;;6.70;72.70;;;;;;5091941;28;20250;-72
2022/04/05 03:45:31;;;;;;;28.02;26.15;;;6.80;72.30;;;;;;5092027;28;20196;-72
2022/04/05 03:47:57;;;;;;;29.27;27.33;;;6.70;72.50;;;;;;5092094;28;20203;-72
2022/04/05 03:50:24;;;;;;;29.38;27.48;;;6.80;72.70;;;;;;5091395;28;20208;-72
2022/04/05 03:52:51;;;;;;;28.02;26.35;;;6.80;72.80;;;;;;5091974;28;20219;-72
2022/04/05 03:55:18;;;;;;;27.38;25.67;;;6.90;73.00;;;;;;5094729;28;20212;-72
2022/04/05 03:57:45;;;;;;;27.17;25.40;;;6.90;72.90;;;;;;5096184;28;20659;-72
2022/04/05 04:00:14;;;;;;;29.00;26.70;;;6.90;72.20;;;;;;5095408;28;20202;-72
2022/04/05 04:02:41;;;;;;;30.55;28.83;;;6.90;71.60;;;;;;5095976;28;20226;-72
2022/04/05 04:05:08;;;;;;;30.58;28.30;;;6.90;71.10;;;;;;5095594;28;20667;-72
2022/04/05 04:07:39;;;;;;;29.85;28.15;;;6.90;71.40;;;;;;5095900;28;20202;-72
2022/04/05 04:10:08;;;;;;;28.13;26.42;;;6.90;71.30;;;;;;5095024;28;20207;-72
2022/04/05 04:12:34;;;;;;;29.52;27.45;;;7.00;70.90;;;;;;5095751;28;20214;-72
2022/04/05 04:15:02;;;;;;;29.15;27.05;;;7.10;71.50;;;;;;5095664;28;20232;-72
2022/04/05 04:17:30;;;;;;;28.13;26.40;;;7.00;70.90;;;;;;5095738;28;20208;-73
2022/04/05 04:19:57;;;;;;;30.13;28.15;;;6.90;71.30;;;;;;5094936;28;20222;-72
2022/04/05 04:22:24;;;;;;;28.00;26.38;;;7.00;71.80;;;;;;5095445;28;20229;-72
2022/04/05 04:24:52;;;;;;;28.77;26.85;;;7.00;71.40;;;;;;5095454;28;20196;-72
2022/04/05 04:27:19;;;;;;;28.80;26.90;;;7.10;71.60;;;;;;5095387;28;20287;-72
2022/04/05 04:29:46;;;;;;;29.67;27.73;;;7.10;71.90;;;;;;5094980;28;20200;-72
2022/04/05 04:32:13;;;;;;;29.52;27.52;;;7.00;72.30;;;;;;5095519;28;20225;-72
2022/04/05 04:34:41;;;;;;;29.52;27.58;;;7.10;72.30;;;;;;5095168;28;20226;-72
2022/04/05 04:37:08;;;;;;;28.58;26.75;;;7.00;72.50;;;;;;5095182;28;20214;-72
2022/04/05 04:39:36;;;;;;;31.00;28.70;;;6.90;73.00;;;;;;5094627;28;20202;-72
2022/04/05 04:42:04;;;;;;;29.23;27.33;;;7.00;73.80;;;;;;5095462;28;20209;-72
2022/04/05 04:44:31;;;;;;;29.00;27.10;;;7.00;74.60;;;;;;5095078;28;20201;-72
2022/04/05 04:46:58;;;;;;;31.23;29.23;;;7.00;74.80;;;;;;5095224;28;20216;-72
2022/04/05 04:49:25;;;;;;;29.58;27.48;;;6.90;75.40;;;;;;5094525;28;20226;-72
2022/04/05 04:51:53;;;;;;;31.58;29.55;;;6.90;75.50;;;;;;5095092;28;20227;-72
2022/04/05 04:54:20;;;;;;;29.50;27.50;;;6.90;76.40;;;;;;5094821;28;20223;-72
2022/04/05 04:56:47;;;;;;;28.50;26.60;;;6.80;77.00;;;;;;5095083;28;20199;-72
2022/04/05 04:59:14;;;;;;;27.90;26.20;;;6.80;76.70;;;;;;5094302;28;20198;-72
2022/04/05 05:01:41;;;;;;;28.80;26.85;;;6.80;76.00;;;;;;5095061;28;20293;-72
2022/04/05 05:04:08;;;;;;;29.17;27.27;;;6.80;76.40;;;;;;5094232;28;20730;-72
2022/04/05 05:06:35;;;;;;;30.55;28.55;;;6.70;76.30;;;;;;5093926;28;20210;-72
2022/04/05 05:09:03;;;;;;;30.27;27.92;;;6.70;76.60;;;;;;5094415;28;20284;-72
2022/04/05 05:11:30;;;;;;;29.58;27.45;;;6.70;77.20;;;;;;5094102;28;20194;-72
2022/04/05 05:13:57;;;;;;;31.77;29.88;;;6.60;77.10;;;;;;5094602;28;20226;-72
2022/04/05 05:16:24;;;;;;;29.52;27.50;;;6.70;77.60;;;;;;5094448;28;20625;-72
2022/04/05 05:18:51;;;;;;;30.40;28.30;;;6.70;77.40;;;;;;5094353;28;20635;-72
2022/04/05 05:21:19;;;;;;;28.42;26.65;;;6.70;77.60;;;;;;5093874;28;20209;-72
2022/04/05 05:23:46;;;;;;;31.35;29.20;;;6.60;78.00;;;;;;5094405;28;20219;-72
2022/04/05 05:26:15;;;;;;;30.50;28.45;;;6.60;78.10;;;;;;5094503;28;20286;-72
2022/04/05 05:28:42;;;;;;;29.80;27.90;;;6.70;78.70;;;;;;5094322;28;20195;-72
2022/04/05 05:31:09;;;;;;;29.10;27.13;;;6.70;78.70;;;;;;5093616;28;20204;-72
2022/04/05 05:33:36;;;;;;;29.65;27.65;;;6.70;78.20;;;;;;5094443;28;20564;-72
2022/04/05 05:36:03;;;;;;;35.55;30.92;;;6.60;78.40;;;;;;5094237;28;20222;-72
2022/04/05 05:38:30;;;;;;;29.98;27.88;;;6.60;78.40;;;;;;5094033;28;20209;-72
2022/04/05 05:40:57;;;;;;;27.85;26.02;;;6.70;77.90;;;;;;5093587;28;20681;-72
2022/04/05 05:43:25;;;;;;;29.83;27.70;;;6.60;78.60;;;;;;5093923;28;20315;-72
2022/04/05 05:45:52;;;;;;;31.02;28.55;;;6.70;78.50;;;;;;5093989;28;20305;-72
2022/04/05 05:48:19;;;;;;;29.15;27.00;;;6.70;78.20;;;;;;5094065;28;20202;-72
2022/04/05 05:50:46;;;;;;;28.45;26.65;;;6.70;78.10;;;;;;5093342;28;20656;-72
2022/04/05 05:53:13;;;;;;;27.73;26.00;;;6.80;77.50;;;;;;5093924;28;20221;-73
2022/04/05 05:55:40;;;;;;;29.48;27.60;;;6.70;78.20;;;;;;5093853;28;20283;-72
2022/04/05 05:58:07;;;;;;;29.30;27.35;;;6.70;78.50;;;;;;5093663;28;20563;-72
2022/04/05 06:00:35;;;;;;;28.80;26.92;;;6.60;79.60;;;;;;5093245;28;20201;-72
2022/04/05 06:03:03;;;;;;;28.50;26.50;;;6.70;79.10;;;;;;5093583;28;20218;-72
2022/04/05 06:05:31;;;;;;;29.35;27.45;;;6.70;79.30;;;;;;5092945;28;20260;-72
2022/04/05 06:07:58;;;;;;;28.95;27.08;;;6.70;79.60;;;;;;5093526;28;20280;-72
2022/04/05 06:10:26;;;;;;;30.67;28.65;;;6.70;80.00;;;;;;5092775;28;20203;-73
2022/04/05 06:12:55;;;;;;;30.85;28.95;;;6.70;79.80;;;;;;5093360;28;20602;-73
2022/04/05 06:15:22;;;;;;;29.38;27.48;;;6.80;80.00;;;;;;5093358;28;20230;-73
2022/04/05 06:17:51;;;;;;;29.95;28.05;;;6.80;79.50;;;;;;5093352;28;20298;-73
2022/04/05 06:20:19;;;;;;;30.58;28.50;;;6.70;79.80;;;;;;5092661;28;20214;-73
2022/04/05 06:22:47;;;;;;;28.95;27.15;;;6.70;80.30;;;;;;5093217;28;20212;-72
2022/04/05 06:25:17;;;;;;;29.65;27.65;;;6.70;80.50;;;;;;5093256;28;20200;-72
2022/04/05 06:27:44;;;;;;;30.10;28.10;;;6.80;80.10;;;;;;5093130;28;20301;-73
2022/04/05 06:30:12;;;;;;;28.40;26.45;;;6.80;80.10;;;;;;5092731;28;20295;-72
2022/04/05 06:32:40;;;;;;;28.38;26.38;;;6.70;81.30;;;;;;5093041;28;20223;-72
2022/04/05 06:35:10;;;;;;;29.45;27.50;;;6.70;80.70;;;;;;5093002;28;20221;-72
2022/04/05 06:37:38;;;;;;;29.77;27.77;;;6.70;81.00;;;;;;5093150;28;20196;-72
2022/04/05 06:40:07;;;;;;;29.95;27.85;;;6.80;80.80;;;;;;5092597;28;20194;-72
2022/04/05 06:42:34;;;;;;;29.38;27.20;;;6.80;81.20;;;;;;5093779;28;20868;-72
2022/04/05 06:45:01;;;;;;;28.20;26.30;;;6.80;81.30;;;;;;5092898;28;20194;-72
2022/04/05 06:47:28;;;;;;;239.25;58.20;;;6.80;81.00;;;;;;5092928;28;20289;-73
2022/04/05 06:49:55;;;;;;;100.90;41.20;;;6.90;80.90;;;;;;5092204;28;20238;-72
2022/04/05 06:52:23;;;;;;;28.88;26.77;;;6.90;80.80;;;;;;5092716;28;20786;-73
2022/04/05 06:54:50;;;;;;;31.73;28.50;;;6.90;79.90;;;;;;5092482;28;20246;-73
2022/04/05 06:57:17;;;;;;;31.10;29.00;;;7.00;79.50;;;;;;5092608;28;20202;-72
2022/04/05 06:59:43;;;;;;;28.83;26.92;;;7.10;79.10;;;;;;5092108;28;20202;-72
2022/04/05 07:02:11;;;;;;;30.55;28.35;;;7.00;81.60;;;;;;5092841;28;20199;-72
2022/04/05 07:04:38;;;;;;;27.45;25.75;;;7.00;79.80;;;;;;5092262;28;20233;-72
2022/04/05 07:07:05;;;;;;;27.50;25.60;;;7.00;80.00;;;;;;5092545;28;20199;-72
2022/04/05 07:09:33;;;;;;;28.05;26.35;;;7.10;80.00;;;;;;5091752;28;20664;-73
2022/04/05 07:12:00;;;;;;;29.00;26.90;;;7.20;79.50;;;;;;5092479;28;20199;-73
2022/04/05 07:14:27;;;;;;;30.10;28.20;;;7.20;78.90;;;;;;5092331;28;20229;-72
2022/04/05 07:16:54;;;;;;;28.50;26.70;;;7.20;79.00;;;;;;5092430;28;20212;-72
2022/04/05 07:19:21;;;;;;;28.58;26.50;;;7.30;78.80;;;;;;5091568;28;20298;-72
2022/04/05 07:21:47;;;;;;;29.75;27.92;;;7.30;78.80;;;;;;5092181;28;20297;-72
2022/04/05 07:24:14;;;;;;;29.23;27.33;;;7.30;78.70;;;;;;5092125;28;20214;-72
2022/04/05 07:26:42;;;;;;;27.67;25.98;;;7.40;78.20;;;;;;5092334;28;20285;-72
2022/04/05 07:29:10;;;;;;;28.45;26.60;;;7.50;78.40;;;;;;5091164;28;20201;-72
2022/04/05 07:31:37;;;;;;;28.70;26.90;;;7.50;78.30;;;;;;5092050;28;20198;-72
2022/04/05 07:34:04;;;;;;;29.33;27.27;;;7.50;79.40;;;;;;5092019;28;20604;-73
2022/04/05 07:36:32;;;;;;;29.08;27.27;;;7.70;78.30;;;;;;5092260;28;20198;-72
2022/04/05 07:38:59;;;;;;;27.60;25.70;;;7.70;77.40;;;;;;5092112;28;20562;-73
2022/04/05 07:41:26;;;;;;;26.75;25.08;;;7.70;77.20;;;;;;5091493;28;20236;-72
2022/04/05 07:43:54;;;;;;;27.45;25.65;;;7.70;77.00;;;;;;5092042;28;20225;-72
2022/04/05 07:46:21;;;;;;;29.20;27.55;;;7.70;77.10;;;;;;5091919;28;20213;-72
2022/04/05 07:48:48;;;;;;;28.98;27.08;;;7.80;77.10;;;;;;5091805;28;20636;-72
2022/04/05 07:51:16;;;;;;;30.90;29.00;;;7.80;76.40;;;;;;5091575;28;20239;-72
2022/04/05 07:53:43;;;;;;;29.58;27.58;;;7.70;76.80;;;;;;5092050;28;20237;-72
2022/04/05 07:56:12;;;;;;;30.17;28.45;;;7.80;76.70;;;;;;5091795;28;20725;-72
2022/04/05 07:58:39;;;;;;;30.10;28.15;;;7.80;76.90;;;;;;5091839;28;20719;-73
2022/04/05 08:01:09;;;;;;;30.75;28.90;;;7.80;76.80;;;;;;5091410;28;20653;-72
2022/04/05 08:03:36;;;;;;;30.33;28.42;;;8.00;77.10;;;;;;5091720;28;20218;-73
2022/04/05 08:06:03;;;;;;;29.98;27.98;;;8.00;76.60;;;;;;5091580;28;20622;-72
2022/04/05 08:08:30;;;;;;;28.30;26.48;;;8.20;76.50;;;;;;5091743;28;20203;-72
2022/04/05 08:10:58;;;;;;;30.00;28.05;;;8.30;75.60;;;;;;5091252;28;20207;-72
2022/04/05 08:13:26;;;;;;;27.60;25.73;;;8.50;76.90;;;;;;5091732;28;20700;-73
2022/04/05 08:15:53;;;;;;;29.17;27.35;;;8.70;74.90;;;;;;5091666;28;20299;-72
2022/04/05 08:18:21;;;;;;;29.45;27.58;;;8.80;74.80;;;;;;5091637;28;20291;-73
2022/04/05 08:20:48;;;;;;;30.42;28.63;;;8.90;74.50;;;;;;5091306;28;20207;-72
2022/04/05 08:23:16;;;;;;;29.02;26.85;;;9.00;74.90;;;;;;5091599;28;20218;-72
2022/04/05 08:25:43;;;;;;;31.02;28.52;;;9.00;74.70;;;;;;5091711;28;20192;-72
2022/04/05 08:28:10;;;;;;;30.38;28.40;;;9.00;75.50;;;;;;5091503;28;20204;-73
2022/04/05 08:30:37;;;;;;;28.65;27.10;;;9.00;75.20;;;;;;5091031;28;20826;-72
2022/04/05 08:33:04;;;;;;;29.75;27.95;;;9.00;75.20;;;;;;5091599;28;20216;-73
2022/04/05 08:35:32;;;;;;;27.75;25.95;;;9.10;75.50;;;;;;5091523;28;20230;-72
2022/04/05 08:37:59;;;;;;;28.38;26.58;;;9.10;75.30;;;;;;5091571;28;20657;-73
2022/04/05 08:40:27;;;;;;;28.33;26.52;;;9.10;75.30;;;;;;5090919;28;20196;-73
2022/04/05 08:42:57;;;;;;;28.30;26.55;;;9.20;75.20;;;;;;5094906;28;20222;-73
2022/04/05 08:45:27;;;;;;;27.85;26.10;;;9.30;74.90;;;;;;5095148;28;20672;-73
2022/04/05 08:47:55;;;;;;;30.45;28.55;;;9.20;74.90;;;;;;5095084;28;20196;-73
2022/04/05 08:50:24;;;;;;;30.52;28.63;;;9.30;75.40;;;;;;5094427;28;20202;-73
2022/04/05 08:52:54;;;;;;;31.30;29.33;;;9.40;75.50;;;;;;5095130;28;20224;-73
2022/04/05 08:55:21;;;;;;;28.52;26.73;;;9.50;75.70;;;;;;5094821;28;20219;-73
2022/04/05 08:57:48;;;;;;;28.90;27.08;;;9.60;74.30;;;;;;5094903;28;20207;-73
2022/04/05 09:00:19;;;;;;;28.23;26.35;;;9.70;74.30;;;;;;5094543;28;20283;-73
2022/04/05 09:02:54;;;;;;;29.88;28.30;;;9.70;74.80;;;;;;5094856;28;20216;-73
2022/04/05 09:05:33;;;;;;;29.57;27.47;;;9.90;74.50;;;;;;5094407;28;20676;-73
2022/04/05 09:08:20;;;;;;;30.57;28.27;;;10.10;74.20;;;;;;5094606;28;20453;-73
2022/04/05 09:10:49;;;;;;;28.60;26.77;;;10.40;73.80;;;;;;5094069;28;20788;-73
2022/04/05 09:13:19;;;;;;;28.47;26.67;;;10.50;73.50;;;;;;5094777;28;20469;-73
2022/04/05 09:15:50;;;;;;;29.87;27.70;;;10.50;72.90;;;;;;5094640;28;20477;-73
2022/04/05 09:18:28;;;;;;;29.20;27.20;;;10.40;72.40;;;;;;5094354;28;20465;-73
2022/04/05 09:20:55;;;;;;;29.20;27.20;;;10.50;73.10;;;;;;5093980;28;21028;-73
2022/04/05 09:23:31;;;;;;;26.73;25.03;;;10.50;72.90;;;;;;5094596;28;20469;-73
2022/04/05 09:25:59;;;;;;;30.60;28.80;;;10.60;72.60;;;;;;5094306;28;20449;-72
2022/04/05 09:28:32;;;;;;;29.00;27.20;;;10.50;72.00;;;;;;5094285;28;20450;-72
2022/04/05 09:31:05;;;;;;;27.77;26.07;;;10.50;72.20;;;;;;5093874;28;20885;-72
2022/04/05 09:33:33;;;;;;;27.97;26.27;;;10.60;72.20;;;;;;5094246;28;20553;-73
2022/04/05 09:36:10;;;;;;;29.60;27.67;;;10.70;71.80;;;;;;5094105;28;20482;-73
2022/04/05 09:38:40;;;;;;;28.30;26.60;;;10.80;71.50;;;;;;5094592;28;20528;-72
2022/04/05 09:41:11;;;;;;;28.00;26.30;;;10.80;71.90;;;;;;5093987;28;20906;-72
2022/04/05 09:43:38;;;;;;;27.13;25.40;;;10.80;70.80;;;;;;5094132;28;20469;-72
2022/04/05 09:46:06;;;;;;;28.37;26.63;;;10.90;71.70;;;;;;5093987;28;20446;-73
2022/04/05 09:48:35;;;;;;;28.47;26.80;;;10.90;71.20;;;;;;5093940;28;20482;-73
2022/04/05 09:51:05;;;;;;;28.37;26.57;;;10.70;72.00;;;;;;5093387;28;20453;-73
2022/04/05 09:53:48;;;;;;;28.57;26.77;;;10.70;72.90;;;;;;5094013;28;20877;-73
2022/04/05 09:56:17;;;;;;;28.50;26.90;;;10.90;72.40;;;;;;5093648;28;20477;-73
2022/04/05 09:58:47;;;;;;;27.63;25.83;;;10.80;72.10;;;;;;5093610;28;20536;-73
2022/04/05 10:01:15;;;;;;;29.53;27.83;;;10.80;72.20;;;;;;5093445;28;20859;-73
2022/04/05 10:03:43;;;;;;;29.17;27.57;;;10.90;72.30;;;;;;5093620;28;20827;-73
2022/04/05 10:06:10;;;;;;;28.03;26.27;;;11.00;72.10;;;;;;5093152;28;20466;-73
2022/04/05 10:08:39;;;;;;;27.80;26.10;;;11.00;72.10;;;;;;5093335;28;20947;-72
2022/04/05 10:11:07;;;;;;;27.83;26.30;;;10.90;72.80;;;;;;5093074;28;20456;-72
2022/04/05 10:13:34;;;;;;;26.77;25.17;;;11.00;72.80;;;;;;5093442;28;20588;-72
2022/04/05 10:16:01;;;;;;;29.13;27.13;;;10.90;73.00;;;;;;5093508;28;20910;-73
2022/04/05 10:18:34;;;;;;;26.10;24.60;;;10.90;72.80;;;;;;5093260;28;20477;-73
2022/04/05 10:21:03;;;;;;;26.73;25.07;;;10.80;72.70;;;;;;5093018;28;20461;-73
2022/04/05 10:23:32;;;;;;;27.40;25.80;;;10.70;73.10;;;;;;5093574;28;20477;-73
2022/04/05 10:26:00;;;;;;;27.37;25.60;;;10.80;73.00;;;;;;5093258;28;20446;-73
2022/04/05 10:28:32;;;;;;;27.00;25.20;;;10.60;74.10;;;;;;5093177;28;20466;-73
2022/04/05 10:31:09;;;;;;;27.90;26.20;;;10.70;74.10;;;;;;5092683;28;20484;-72
2022/04/05 10:33:53;;;;;;;28.77;27.07;;;10.80;74.60;;;;;;5093126;28;20545;-73
2022/04/05 10:36:23;;;;;;;28.13;26.33;;;10.90;74.70;;;;;;5093038;28;21004;-73
2022/04/05 10:39:12;;;;;;;26.93;25.17;;;11.00;75.00;;;;;;5093037;28;20457;-73
2022/04/05 10:41:38;;;;;;;28.07;26.07;;;11.00;74.60;;;;;;5092877;28;20449;-72
2022/04/05 10:44:27;;;;;;;26.83;25.33;;;11.00;75.20;;;;;;5093074;28;20480;-73
2022/04/05 10:46:57;;;;;;;28.13;26.30;;;11.00;75.50;;;;;;5092915;28;20939;-73
2022/04/05 10:49:37;;;;;;;27.93;26.23;;;11.00;75.90;;;;;;5092239;28;20540;-73
2022/04/05 10:52:09;;;;;;;26.13;24.60;;;11.00;76.00;;;;;;5092595;28;20495;-73
2022/04/05 10:54:42;;;;;;;27.27;25.50;;;11.00;75.40;;;;;;5092693;28;20450;-72
2022/04/05 10:57:34;;;;;;;27.87;26.20;;;11.00;76.50;;;;;;5092622;28;20473;-73
2022/04/05 11:00:10;;;;;;;27.83;26.33;;;11.00;76.50;;;;;;5091931;28;20942;-73
2022/04/05 11:02:47;;;;;;;27.73;25.93;;;11.10;75.70;;;;;;5092667;28;20910;-73
2022/04/05 11:05:42;;;;;;;25.63;24.13;;;11.10;75.70;;;;;;5091513;28;20453;-72
2022/04/05 11:08:20;;;;;;;25.33;24.00;;;11.00;75.80;;;;;;5092407;28;20446;-73
2022/04/05 11:11:00;;;;;;;25.70;24.20;;;11.00;75.90;;;;;;5091474;28;20819;-73
2022/04/05 11:13:46;;;;;;;26.07;24.37;;;11.10;75.80;;;;;;5092666;28;20465;-73
2022/04/05 11:16:14;;;;;;;26.20;24.70;;;11.10;76.30;;;;;;5092505;28;20469;-73
2022/04/05 11:18:44;;;;;;;27.10;25.50;;;11.40;77.50;;;;;;5092096;28;20962;-73
2022/04/05 11:21:11;;;;;;;25.20;23.80;;;11.40;76.00;;;;;;5091601;28;20540;-73
2022/04/05 11:23:48;;;;;;;26.93;25.40;;;11.50;75.50;;;;;;5092306;28;20514;-72
2022/04/05 11:26:30;;;;;;;26.70;25.20;;;11.70;75.50;;;;;;5092301;28;20857;-73
2022/04/05 11:28:59;;;;;;;25.90;24.50;;;12.00;74.30;;;;;;5092242;28;20831;-73
2022/04/05 11:31:37;;;;;;;27.70;26.00;;;12.20;74.10;;;;;;5091655;28;20446;-72
2022/04/05 11:34:33;;;;;;;27.80;26.00;;;12.30;73.80;;;;;;5092149;28;20560;-73
2022/04/05 11:37:00;;;;;;;26.63;25.20;;;12.50;74.10;;;;;;5091901;28;20473;-73
2022/04/05 11:39:26;;;;;;;27.03;25.33;;;12.50;73.80;;;;;;5091663;28;20990;-73
2022/04/05 11:41:59;;;;;;;26.80;25.30;;;12.60;73.00;;;;;;5091865;28;20496;-73
2022/04/05 11:44:25;;;;;;;29.03;27.33;;;12.70;72.40;;;;;;5092063;28;20963;-73
2022/04/05 11:46:57;;;;;;;27.33;25.73;;;12.90;71.50;;;;;;5091907;28;20445;-73
2022/04/05 11:49:24;;;;;;;27.10;25.47;;;13.00;72.10;;;;;;5091586;28;20450;-73
2022/04/05 11:51:51;;;;;;;25.97;24.37;;;13.10;71.90;;;;;;5092040;28;20453;-73
2022/04/05 11:54:22;;;;;;;27.17;25.57;;;13.30;70.80;;;;;;5091897;28;20820;-73
2022/04/05 11:56:49;;;;;;;25.53;24.13;;;13.30;70.80;;;;;;5091830;28;20474;-73
2022/04/05 11:59:18;;;;;;;26.17;24.67;;;13.50;70.20;;;;;;5091370;28;20453;-73
2022/04/05 12:01:49;;;;;;;25.20;23.80;;;13.70;69.10;;;;;;5092011;28;20818;-73
2022/04/05 12:04:20;;;;;;;27.53;26.00;;;13.70;68.60;;;;;;5091758;28;20491;-73
2022/04/05 12:06:50;;;;;;;25.87;24.47;;;13.80;68.60;;;;;;5091746;28;20493;-73
2022/04/05 12:09:18;;;;;;;26.80;25.27;;;13.90;68.40;;;;;;5091201;28;20453;-73
2022/04/05 12:11:47;;;;;;;25.73;24.33;;;14.20;66.60;;;;;;5091707;28;21002;-73
2022/04/05 12:14:16;;;;;;;25.77;24.27;;;14.00;66.50;;;;;;5091888;28;20966;-73
2022/04/05 12:16:47;;;;;;;25.53;24.13;;;14.20;65.80;;;;;;5095098;28;20477;-73
2022/04/05 12:19:20;;;;;;;26.70;25.10;;;14.20;65.70;;;;;;5095130;28;20500;-73
2022/04/05 12:21:52;;;;;;;25.70;24.23;;;14.10;66.70;;;;;;5095627;28;20472;-73
2022/04/05 12:24:19;;;;;;;27.03;25.53;;;13.90;66.90;;;;;;5095994;28;20450;-73
2022/04/05 12:26:46;;;;;;;25.10;23.63;;;13.90;66.30;;;;;;5095903;28;20481;-72
2022/04/05 12:29:14;;;;;;;26.13;24.67;;;13.90;66.70;;;;;;5094956;28;20923;-73
2022/04/05 12:31:41;;;;;;;25.60;24.10;;;13.90;67.60;;;;;;5095710;28;20449;-73
2022/04/05 12:34:11;;;;;;;26.27;24.87;;;13.70;67.50;;;;;;5095504;28;20899;-72
2022/04/05 12:36:41;;;;;;;26.27;24.53;;;13.80;68.30;;;;;;5095972;28;20481;-73
2022/04/05 12:39:16;;;;;;;25.53;24.13;;;13.80;68.20;;;;;;5094950;28;20464;-73
2022/04/05 12:41:43;;;;;;;26.50;24.90;;;13.90;68.10;;;;;;5095481;28;20452;-73